Jump to content

Andres Valladares 1199152

Members
  • Content Count

    3
  • Joined

  • Last visited

    Never

Community Reputation

0 Neutral
  1. It seems to be working now, but the error poped up after connectin to VATSIM and selecting the ATIS letter it was like that maybe 3 or 4 days, if the error comes back I will be back here. Thank you
  2. RadarContact.vATIS, Version=2.0.5926.38749, Culture=neutral, PublicKeyToken=null ============================================================ Culture : en-US OS : Microsoft Windows NT 6.2.9200.0 Framework : 2.0.50727.8670 Time : 04/12/2016 16:04:23 Runtime : 00:02:36.2651281 METAR : SEQM 121235Z 29004KT 270V330 9999 3000S BCFG SCT002 BKN033 14/13 Q1029 BECMG TL1300 8000 RMK A3039 ------------------------------------------------------------ Details: System.NullReferenceException: Object reference not set to an instance of an object. at System.Windows
  3. Hello, I have installed the last vATIS version it worked normally some days but today I got the following error. Thanks Andres Valladares
×
×
  • Create New...